EKRK

Copenhagen Roskilde Airport

Copenhagen, Denmark
METAR EKRK 190050Z AUTO 15014KT 5000NDV SCT004/// BKN006/// OVC008/// 04/03 Q1020
Observed Flight Rules
Dec-19 @ 00:50 UTC (31 minutes ago)
Wind Clouds
150° at 14 knots
  • Scattered at 400' AGL
  • Broken at 600' AGL
  • Overcast at 800' AGL
Temperatures Readings
Current 4°C / 39°F
Dewpoint 3°C / 37°F
Humidity 93%
Altimeter 30.12" Hg
Pressure 1020 hPa
Elevation 44
METAR EKRK 190050Z AUTO 15014KT 5000NDV SCT004/// BKN006/// OVC008/// 04/03 Q1020
Observed Flight Rules
Dec-19 @ 00:50 UTC
(31 minutes ago)
Wind
150° at 14 knots
Clouds
  • Scattered at 400' AGL
  • Broken at 600' AGL
  • Overcast at 800' AGL
Temperature Dewpoint
4°C / 39°F 3°C / 37°F
Humidity Altimeter Pressure
93% 30.12" Hg 1020 hPa